sensor_id;sensor_type;location;lat;lon;timestamp;P1;durP1;ratioP1;P2;durP2;ratioP2
71679;SDS011;59512;42.662;23.254;2024-01-11T00:00:20;33.28;;;19.73;;
71679;SDS011;59512;42.662;23.254;2024-01-11T00:02:45;35.80;;;20.90;;
71679;SDS011;59512;42.662;23.254;2024-01-11T00:05:11;35.03;;;20.37;;
71679;SDS011;59512;42.662;23.254;2024-01-11T00:07:36;27.37;;;15.60;;
71679;SDS011;59512;42.662;23.254;2024-01-11T00:10:02;30.30;;;16.87;;
71679;SDS011;59512;42.662;23.254;2024-01-11T00:12:28;29.50;;;17.38;;
71679;SDS011;59512;42.662;23.254;2024-01-11T00:14:54;35.33;;;19.43;;
71679;SDS011;59512;42.662;23.254;2024-01-11T00:17:19;33.13;;;18.70;;
71679;SDS011;59512;42.662;23.254;2024-01-11T00:19:44;32.20;;;18.90;;
71679;SDS011;59512;42.662;23.254;2024-01-11T00:22:10;34.17;;;19.27;;
71679;SDS011;59512;42.662;23.254;2024-01-11T00:24:35;37.85;;;20.25;;
71679;SDS011;59512;42.662;23.254;2024-01-11T00:27:00;37.65;;;20.35;;
71679;SDS011;59512;42.662;23.254;2024-01-11T00:29:26;43.30;;;23.50;;
71679;SDS011;59512;42.662;23.254;2024-01-11T00:31:51;42.77;;;24.03;;
71679;SDS011;59512;42.662;23.254;2024-01-11T00:34:17;40.03;;;22.37;;
71679;SDS011;59512;42.662;23.254;2024-01-11T00:36:42;45.67;;;23.37;;
71679;SDS011;59512;42.662;23.254;2024-01-11T00:39:07;41.97;;;23.60;;
71679;SDS011;59512;42.662;23.254;2024-01-11T00:41:33;37.30;;;21.50;;
71679;SDS011;59512;42.662;23.254;2024-01-11T00:43:58;40.50;;;21.13;;
71679;SDS011;59512;42.662;23.254;2024-01-11T00:46:23;37.38;;;20.05;;
71679;SDS011;59512;42.662;23.254;2024-01-11T00:48:49;39.05;;;22.23;;
71679;SDS011;59512;42.662;23.254;2024-01-11T00:51:15;42.40;;;22.40;;
71679;SDS011;59512;42.662;23.254;2024-01-11T00:53:40;37.00;;;21.03;;
71679;SDS011;59512;42.662;23.254;2024-01-11T00:56:14;34.35;;;19.20;;
71679;SDS011;59512;42.662;23.254;2024-01-11T00:58:40;35.10;;;20.17;;
71679;SDS011;59512;42.662;23.254;2024-01-11T01:01:08;38.47;;;20.65;;
71679;SDS011;59512;42.662;23.254;2024-01-11T01:03:34;37.53;;;21.33;;
71679;SDS011;59512;42.662;23.254;2024-01-11T01:06:00;34.03;;;18.77;;
71679;SDS011;59512;42.662;23.254;2024-01-11T01:08:26;33.37;;;17.90;;
71679;SDS011;59512;42.662;23.254;2024-01-11T01:10:52;34.15;;;17.83;;
71679;SDS011;59512;42.662;23.254;2024-01-11T01:13:17;43.63;;;23.17;;
71679;SDS011;59512;42.662;23.254;2024-01-11T01:15:43;41.70;;;22.43;;
71679;SDS011;59512;42.662;23.254;2024-01-11T01:18:08;43.20;;;23.67;;
71679;SDS011;59512;42.662;23.254;2024-01-11T01:20:33;39.93;;;22.73;;
71679;SDS011;59512;42.662;23.254;2024-01-11T01:22:59;32.67;;;17.83;;
71679;SDS011;59512;42.662;23.254;2024-01-11T01:25:24;35.10;;;17.73;;
71679;SDS011;59512;42.662;23.254;2024-01-11T01:27:50;38.73;;;22.30;;
71679;SDS011;59512;42.662;23.254;2024-01-11T01:30:15;38.93;;;21.80;;
71679;SDS011;59512;42.662;23.254;2024-01-11T01:32:41;37.30;;;21.65;;
71679;SDS011;59512;42.662;23.254;2024-01-11T01:35:06;33.93;;;19.07;;
71679;SDS011;59512;42.662;23.254;2024-01-11T01:37:32;33.67;;;20.23;;
71679;SDS011;59512;42.662;23.254;2024-01-11T01:39:58;35.30;;;19.95;;
71679;SDS011;59512;42.662;23.254;2024-01-11T01:42:23;35.67;;;20.77;;
71679;SDS011;59512;42.662;23.254;2024-01-11T01:44:48;38.73;;;21.33;;
71679;SDS011;59512;42.662;23.254;2024-01-11T01:47:14;36.60;;;19.93;;
71679;SDS011;59512;42.662;23.254;2024-01-11T01:49:39;33.67;;;19.27;;
71679;SDS011;59512;42.662;23.254;2024-01-11T01:52:05;35.38;;;21.05;;
71679;SDS011;59512;42.662;23.254;2024-01-11T01:54:31;38.53;;;20.73;;
71679;SDS011;59512;42.662;23.254;2024-01-11T01:56:57;35.78;;;20.23;;
71679;SDS011;59512;42.662;23.254;2024-01-11T01:59:23;30.77;;;18.70;;
71679;SDS011;59512;42.662;23.254;2024-01-11T02:01:49;29.55;;;16.95;;
71679;SDS011;59512;42.662;23.254;2024-01-11T02:04:15;29.60;;;16.93;;
71679;SDS011;59512;42.662;23.254;2024-01-11T02:06:40;32.97;;;18.43;;
71679;SDS011;59512;42.662;23.254;2024-01-11T02:09:06;34.10;;;18.05;;
71679;SDS011;59512;42.662;23.254;2024-01-11T02:11:33;36.03;;;18.97;;
71679;SDS011;59512;42.662;23.254;2024-01-11T02:13:59;31.50;;;16.13;;
71679;SDS011;59512;42.662;23.254;2024-01-11T02:16:24;33.55;;;18.27;;
71679;SDS011;59512;42.662;23.254;2024-01-11T02:18:50;25.05;;;13.85;;
71679;SDS011;59512;42.662;23.254;2024-01-11T02:21:15;28.93;;;14.97;;
71679;SDS011;59512;42.662;23.254;2024-01-11T02:26:31;30.70;;;15.60;;
71679;SDS011;59512;42.662;23.254;2024-01-11T02:28:56;31.23;;;16.17;;
71679;SDS011;59512;42.662;23.254;2024-01-11T02:31:22;27.77;;;16.07;;
71679;SDS011;59512;42.662;23.254;2024-01-11T02:33:47;29.67;;;18.00;;
71679;SDS011;59512;42.662;23.254;2024-01-11T02:36:13;30.03;;;16.47;;
71679;SDS011;59512;42.662;23.254;2024-01-11T02:38:38;33.07;;;18.50;;
71679;SDS011;59512;42.662;23.254;2024-01-11T02:41:07;29.00;;;16.40;;
71679;SDS011;59512;42.662;23.254;2024-01-11T02:43:32;29.07;;;16.73;;
71679;SDS011;59512;42.662;23.254;2024-01-11T02:46:00;29.65;;;18.25;;
71679;SDS011;59512;42.662;23.254;2024-01-11T02:48:30;31.90;;;17.58;;
71679;SDS011;59512;42.662;23.254;2024-01-11T02:50:56;32.25;;;16.50;;
71679;SDS011;59512;42.662;23.254;2024-01-11T02:53:22;28.15;;;15.45;;
71679;SDS011;59512;42.662;23.254;2024-01-11T02:55:48;29.65;;;14.88;;
71679;SDS011;59512;42.662;23.254;2024-01-11T02:58:14;27.05;;;13.75;;
71679;SDS011;59512;42.662;23.254;2024-01-11T03:00:39;23.37;;;13.40;;
71679;SDS011;59512;42.662;23.254;2024-01-11T03:03:05;25.70;;;13.97;;
71679;SDS011;59512;42.662;23.254;2024-01-11T03:05:30;29.33;;;14.43;;
71679;SDS011;59512;42.662;23.254;2024-01-11T03:07:56;27.47;;;15.27;;
71679;SDS011;59512;42.662;23.254;2024-01-11T03:10:22;29.95;;;15.02;;
71679;SDS011;59512;42.662;23.254;2024-01-11T03:12:47;29.27;;;15.37;;
71679;SDS011;59512;42.662;23.254;2024-01-11T03:15:14;31.73;;;16.48;;
71679;SDS011;59512;42.662;23.254;2024-01-11T03:17:40;34.73;;;22.03;;
71679;SDS011;59512;42.662;23.254;2024-01-11T03:20:05;27.40;;;16.10;;
71679;SDS011;59512;42.662;23.254;2024-01-11T03:22:31;27.35;;;15.38;;
71679;SDS011;59512;42.662;23.254;2024-01-11T03:24:57;27.13;;;15.57;;
71679;SDS011;59512;42.662;23.254;2024-01-11T03:27:23;29.65;;;16.65;;
71679;SDS011;59512;42.662;23.254;2024-01-11T03:29:48;32.55;;;17.55;;
71679;SDS011;59512;42.662;23.254;2024-01-11T03:32:15;33.60;;;17.80;;
71679;SDS011;59512;42.662;23.254;2024-01-11T03:34:40;33.17;;;17.02;;
71679;SDS011;59512;42.662;23.254;2024-01-11T03:37:06;28.07;;;16.30;;
71679;SDS011;59512;42.662;23.254;2024-01-11T03:39:32;29.73;;;16.33;;
71679;SDS011;59512;42.662;23.254;2024-01-11T03:41:57;29.63;;;17.23;;
71679;SDS011;59512;42.662;23.254;2024-01-11T03:44:22;31.07;;;17.20;;
71679;SDS011;59512;42.662;23.254;2024-01-11T03:46:48;31.70;;;17.37;;
71679;SDS011;59512;42.662;23.254;2024-01-11T03:49:13;30.87;;;16.43;;
71679;SDS011;59512;42.662;23.254;2024-01-11T03:51:39;37.13;;;19.35;;
71679;SDS011;59512;42.662;23.254;2024-01-11T03:54:04;39.63;;;20.40;;
71679;SDS011;59512;42.662;23.254;2024-01-11T03:56:30;38.33;;;20.23;;
71679;SDS011;59512;42.662;23.254;2024-01-11T03:58:55;39.23;;;20.13;;
71679;SDS011;59512;42.662;23.254;2024-01-11T04:01:21;34.30;;;18.87;;
71679;SDS011;59512;42.662;23.254;2024-01-11T04:03:46;33.90;;;18.10;;
71679;SDS011;59512;42.662;23.254;2024-01-11T04:06:23;40.50;;;19.70;;
71679;SDS011;59512;42.662;23.254;2024-01-11T04:08:49;45.30;;;22.63;;
71679;SDS011;59512;42.662;23.254;2024-01-11T04:11:15;43.55;;;21.38;;
71679;SDS011;59512;42.662;23.254;2024-01-11T04:13:41;42.57;;;20.27;;
71679;SDS011;59512;42.662;23.254;2024-01-11T04:16:06;39.60;;;20.30;;
71679;SDS011;59512;42.662;23.254;2024-01-11T04:18:32;38.67;;;20.13;;
71679;SDS011;59512;42.662;23.254;2024-01-11T04:20:59;41.83;;;21.60;;
71679;SDS011;59512;42.662;23.254;2024-01-11T04:23:24;46.45;;;23.63;;
71679;SDS011;59512;42.662;23.254;2024-01-11T04:25:50;46.97;;;21.43;;
71679;SDS011;59512;42.662;23.254;2024-01-11T04:28:16;38.95;;;22.38;;
71679;SDS011;59512;42.662;23.254;2024-01-11T04:30:42;42.67;;;23.00;;
71679;SDS011;59512;42.662;23.254;2024-01-11T04:33:07;47.78;;;25.17;;
71679;SDS011;59512;42.662;23.254;2024-01-11T04:35:34;42.83;;;23.93;;
71679;SDS011;59512;42.662;23.254;2024-01-11T04:38:00;41.90;;;22.97;;
71679;SDS011;59512;42.662;23.254;2024-01-11T04:40:25;45.70;;;23.55;;
71679;SDS011;59512;42.662;23.254;2024-01-11T04:42:50;49.43;;;26.10;;
71679;SDS011;59512;42.662;23.254;2024-01-11T04:45:16;44.87;;;24.63;;
71679;SDS011;59512;42.662;23.254;2024-01-11T04:47:41;69.17;;;30.50;;
71679;SDS011;59512;42.662;23.254;2024-01-11T04:50:07;58.07;;;28.90;;
71679;SDS011;59512;42.662;23.254;2024-01-11T04:52:32;69.22;;;31.63;;
71679;SDS011;59512;42.662;23.254;2024-01-11T04:54:58;68.77;;;31.50;;
71679;SDS011;59512;42.662;23.254;2024-01-11T04:57:23;63.77;;;30.07;;
71679;SDS011;59512;42.662;23.254;2024-01-11T04:59:48;57.03;;;28.10;;
71679;SDS011;59512;42.662;23.254;2024-01-11T05:02:14;53.43;;;29.90;;
71679;SDS011;59512;42.662;23.254;2024-01-11T05:04:39;48.93;;;27.67;;
71679;SDS011;59512;42.662;23.254;2024-01-11T05:07:04;50.80;;;28.23;;
71679;SDS011;59512;42.662;23.254;2024-01-11T05:09:30;51.00;;;26.45;;
71679;SDS011;59512;42.662;23.254;2024-01-11T05:11:55;48.50;;;25.48;;
71679;SDS011;59512;42.662;23.254;2024-01-11T05:14:21;49.83;;;25.17;;
71679;SDS011;59512;42.662;23.254;2024-01-11T05:16:46;44.37;;;24.60;;
71679;SDS011;59512;42.662;23.254;2024-01-11T05:19:11;41.80;;;24.03;;
71679;SDS011;59512;42.662;23.254;2024-01-11T05:21:37;47.73;;;26.93;;
71679;SDS011;59512;42.662;23.254;2024-01-11T05:24:02;47.43;;;26.57;;
71679;SDS011;59512;42.662;23.254;2024-01-11T05:26:28;46.83;;;25.70;;
71679;SDS011;59512;42.662;23.254;2024-01-11T05:28:53;47.58;;;26.83;;
71679;SDS011;59512;42.662;23.254;2024-01-11T05:31:18;43.57;;;25.00;;
71679;SDS011;59512;42.662;23.254;2024-01-11T05:33:44;43.77;;;25.80;;
71679;SDS011;59512;42.662;23.254;2024-01-11T05:36:10;42.50;;;23.35;;
71679;SDS011;59512;42.662;23.254;2024-01-11T05:38:37;47.20;;;24.63;;
71679;SDS011;59512;42.662;23.254;2024-01-11T05:41:03;41.28;;;23.55;;
71679;SDS011;59512;42.662;23.254;2024-01-11T05:43:29;37.53;;;22.10;;
71679;SDS011;59512;42.662;23.254;2024-01-11T05:45:54;44.33;;;25.33;;
71679;SDS011;59512;42.662;23.254;2024-01-11T05:48:20;36.90;;;21.87;;
71679;SDS011;59512;42.662;23.254;2024-01-11T05:50:45;36.05;;;21.42;;
71679;SDS011;59512;42.662;23.254;2024-01-11T05:53:11;38.08;;;22.17;;
71679;SDS011;59512;42.662;23.254;2024-01-11T05:55:37;39.75;;;22.45;;
71679;SDS011;59512;42.662;23.254;2024-01-11T05:58:03;37.53;;;21.53;;
71679;SDS011;59512;42.662;23.254;2024-01-11T06:00:28;40.53;;;21.57;;
71679;SDS011;59512;42.662;23.254;2024-01-11T06:02:54;38.83;;;22.97;;
71679;SDS011;59512;42.662;23.254;2024-01-11T06:05:19;43.58;;;24.63;;
71679;SDS011;59512;42.662;23.254;2024-01-11T06:07:44;42.47;;;23.95;;
71679;SDS011;59512;42.662;23.254;2024-01-11T06:10:10;38.23;;;22.10;;
71679;SDS011;59512;42.662;23.254;2024-01-11T06:12:35;41.67;;;23.73;;
71679;SDS011;59512;42.662;23.254;2024-01-11T06:15:01;43.77;;;22.90;;
71679;SDS011;59512;42.662;23.254;2024-01-11T06:17:27;44.05;;;23.38;;
71679;SDS011;59512;42.662;23.254;2024-01-11T06:19:52;36.27;;;21.33;;
71679;SDS011;59512;42.662;23.254;2024-01-11T06:22:18;39.97;;;21.63;;
71679;SDS011;59512;42.662;23.254;2024-01-11T06:24:43;38.53;;;22.42;;
71679;SDS011;59512;42.662;23.254;2024-01-11T06:27:09;43.77;;;23.13;;
71679;SDS011;59512;42.662;23.254;2024-01-11T06:29:34;45.27;;;25.53;;
71679;SDS011;59512;42.662;23.254;2024-01-11T06:32:00;49.05;;;28.02;;
71679;SDS011;59512;42.662;23.254;2024-01-11T06:34:25;50.20;;;28.67;;
71679;SDS011;59512;42.662;23.254;2024-01-11T06:36:51;60.93;;;35.50;;
71679;SDS011;59512;42.662;23.254;2024-01-11T06:39:16;64.30;;;35.77;;
71679;SDS011;59512;42.662;23.254;2024-01-11T06:41:41;66.27;;;36.47;;
71679;SDS011;59512;42.662;23.254;2024-01-11T06:44:07;71.10;;;39.67;;
71679;SDS011;59512;42.662;23.254;2024-01-11T06:46:32;77.67;;;43.50;;
71679;SDS011;59512;42.662;23.254;2024-01-11T06:48:58;78.57;;;44.95;;
71679;SDS011;59512;42.662;23.254;2024-01-11T06:51:23;65.23;;;38.47;;
71679;SDS011;59512;42.662;23.254;2024-01-11T06:53:49;68.87;;;37.23;;
71679;SDS011;59512;42.662;23.254;2024-01-11T06:56:16;69.40;;;38.30;;
71679;SDS011;59512;42.662;23.254;2024-01-11T06:58:42;84.10;;;46.43;;
71679;SDS011;59512;42.662;23.254;2024-01-11T07:01:08;82.45;;;46.05;;
71679;SDS011;59512;42.662;23.254;2024-01-11T07:03:33;77.03;;;45.15;;
71679;SDS011;59512;42.662;23.254;2024-01-11T07:05:59;72.47;;;43.10;;
71679;SDS011;59512;42.662;23.254;2024-01-11T07:08:24;74.23;;;44.13;;
71679;SDS011;59512;42.662;23.254;2024-01-11T07:10:49;72.00;;;42.27;;
71679;SDS011;59512;42.662;23.254;2024-01-11T07:13:15;67.07;;;40.03;;
71679;SDS011;59512;42.662;23.254;2024-01-11T07:15:42;73.78;;;39.53;;
71679;SDS011;59512;42.662;23.254;2024-01-11T07:18:08;66.03;;;38.30;;
71679;SDS011;59512;42.662;23.254;2024-01-11T07:20:33;69.60;;;40.55;;
71679;SDS011;59512;42.662;23.254;2024-01-11T07:22:58;78.53;;;41.97;;
71679;SDS011;59512;42.662;23.254;2024-01-11T07:25:24;74.50;;;44.87;;
71679;SDS011;59512;42.662;23.254;2024-01-11T07:27:50;76.93;;;44.60;;
71679;SDS011;59512;42.662;23.254;2024-01-11T07:30:16;80.37;;;46.80;;
71679;SDS011;59512;42.662;23.254;2024-01-11T07:32:43;82.32;;;46.20;;
71679;SDS011;59512;42.662;23.254;2024-01-11T07:35:09;78.23;;;44.70;;
71679;SDS011;59512;42.662;23.254;2024-01-11T07:37:36;80.55;;;46.92;;
71679;SDS011;59512;42.662;23.254;2024-01-11T07:40:02;82.75;;;49.85;;
71679;SDS011;59512;42.662;23.254;2024-01-11T07:42:27;91.03;;;52.42;;
71679;SDS011;59512;42.662;23.254;2024-01-11T07:44:53;90.80;;;52.23;;
71679;SDS011;59512;42.662;23.254;2024-01-11T07:47:18;132.90;;;76.47;;
71679;SDS011;59512;42.662;23.254;2024-01-11T07:49:43;89.83;;;51.23;;
71679;SDS011;59512;42.662;23.254;2024-01-11T07:52:09;87.07;;;53.50;;
71679;SDS011;59512;42.662;23.254;2024-01-11T07:54:34;110.03;;;66.85;;
71679;SDS011;59512;42.662;23.254;2024-01-11T07:57:00;77.80;;;45.87;;
71679;SDS011;59512;42.662;23.254;2024-01-11T07:59:28;66.20;;;39.47;;
71679;SDS011;59512;42.662;23.254;2024-01-11T08:01:57;67.50;;;39.23;;
71679;SDS011;59512;42.662;23.254;2024-01-11T08:04:23;66.40;;;38.30;;
71679;SDS011;59512;42.662;23.254;2024-01-11T08:06:49;61.37;;;37.33;;
71679;SDS011;59512;42.662;23.254;2024-01-11T08:09:14;59.63;;;33.90;;
71679;SDS011;59512;42.662;23.254;2024-01-11T08:11:40;65.10;;;37.95;;
71679;SDS011;59512;42.662;23.254;2024-01-11T08:14:06;57.80;;;36.20;;
71679;SDS011;59512;42.662;23.254;2024-01-11T08:16:32;58.10;;;36.70;;
71679;SDS011;59512;42.662;23.254;2024-01-11T08:18:57;56.03;;;35.47;;
71679;SDS011;59512;42.662;23.254;2024-01-11T08:21:23;58.72;;;36.20;;
71679;SDS011;59512;42.662;23.254;2024-01-11T08:23:49;60.17;;;35.30;;
71679;SDS011;59512;42.662;23.254;2024-01-11T08:26:15;54.15;;;34.10;;
71679;SDS011;59512;42.662;23.254;2024-01-11T08:28:41;62.58;;;34.22;;
71679;SDS011;59512;42.662;23.254;2024-01-11T08:31:07;57.95;;;35.95;;
71679;SDS011;59512;42.662;23.254;2024-01-11T08:33:33;54.15;;;32.97;;
71679;SDS011;59512;42.662;23.254;2024-01-11T08:35:59;66.20;;;37.53;;
71679;SDS011;59512;42.662;23.254;2024-01-11T08:38:24;57.00;;;33.23;;
71679;SDS011;59512;42.662;23.254;2024-01-11T08:40:50;56.03;;;31.33;;
71679;SDS011;59512;42.662;23.254;2024-01-11T08:43:16;57.25;;;33.90;;
71679;SDS011;59512;42.662;23.254;2024-01-11T08:45:41;59.47;;;39.67;;
71679;SDS011;59512;42.662;23.254;2024-01-11T08:48:08;55.92;;;33.97;;
71679;SDS011;59512;42.662;23.254;2024-01-11T08:50:34;54.42;;;34.10;;
71679;SDS011;59512;42.662;23.254;2024-01-11T08:53:00;56.37;;;33.77;;
71679;SDS011;59512;42.662;23.254;2024-01-11T08:55:25;57.03;;;33.00;;
71679;SDS011;59512;42.662;23.254;2024-01-11T08:57:51;55.78;;;31.20;;
71679;SDS011;59512;42.662;23.254;2024-01-11T09:00:17;58.37;;;34.53;;
71679;SDS011;59512;42.662;23.254;2024-01-11T09:02:43;61.30;;;36.37;;
71679;SDS011;59512;42.662;23.254;2024-01-11T09:05:09;58.05;;;34.92;;
71679;SDS011;59512;42.662;23.254;2024-01-11T09:07:34;65.27;;;37.57;;
71679;SDS011;59512;42.662;23.254;2024-01-11T09:10:00;57.10;;;35.13;;
71679;SDS011;59512;42.662;23.254;2024-01-11T09:12:25;60.55;;;36.28;;
71679;SDS011;59512;42.662;23.254;2024-01-11T09:14:50;56.87;;;34.47;;
71679;SDS011;59512;42.662;23.254;2024-01-11T09:17:16;58.40;;;34.57;;
71679;SDS011;59512;42.662;23.254;2024-01-11T09:19:41;61.90;;;35.40;;
71679;SDS011;59512;42.662;23.254;2024-01-11T09:22:06;64.40;;;38.43;;
71679;SDS011;59512;42.662;23.254;2024-01-11T09:24:35;66.95;;;38.97;;
71679;SDS011;59512;42.662;23.254;2024-01-11T09:27:00;58.25;;;36.25;;
71679;SDS011;59512;42.662;23.254;2024-01-11T09:29:26;56.35;;;34.38;;
71679;SDS011;59512;42.662;23.254;2024-01-11T09:31:52;57.37;;;33.57;;
71679;SDS011;59512;42.662;23.254;2024-01-11T09:34:18;57.30;;;35.47;;
71679;SDS011;59512;42.662;23.254;2024-01-11T09:36:43;63.80;;;36.87;;
71679;SDS011;59512;42.662;23.254;2024-01-11T09:39:10;62.50;;;35.63;;
71679;SDS011;59512;42.662;23.254;2024-01-11T09:41:38;61.43;;;38.60;;
71679;SDS011;59512;42.662;23.254;2024-01-11T09:44:06;68.60;;;43.95;;
71679;SDS011;59512;42.662;23.254;2024-01-11T09:46:32;66.80;;;40.15;;
71679;SDS011;59512;42.662;23.254;2024-01-11T09:48:57;64.60;;;37.92;;
71679;SDS011;59512;42.662;23.254;2024-01-11T09:51:23;63.58;;;36.90;;
71679;SDS011;59512;42.662;23.254;2024-01-11T09:53:50;65.03;;;38.73;;
71679;SDS011;59512;42.662;23.254;2024-01-11T09:56:16;61.13;;;38.03;;
71679;SDS011;59512;42.662;23.254;2024-01-11T09:58:44;65.30;;;39.73;;
71679;SDS011;59512;42.662;23.254;2024-01-11T10:01:15;60.60;;;37.17;;
71679;SDS011;59512;42.662;23.254;2024-01-11T10:03:40;59.20;;;36.58;;
71679;SDS011;59512;42.662;23.254;2024-01-11T10:06:11;63.28;;;39.00;;
71679;SDS011;59512;42.662;23.254;2024-01-11T10:08:37;72.60;;;45.55;;
71679;SDS011;59512;42.662;23.254;2024-01-11T10:11:03;71.17;;;42.83;;
71679;SDS011;59512;42.662;23.254;2024-01-11T10:13:29;61.28;;;37.92;;
71679;SDS011;59512;42.662;23.254;2024-01-11T10:16:11;61.92;;;37.55;;
71679;SDS011;59512;42.662;23.254;2024-01-11T10:18:40;60.63;;;37.30;;
71679;SDS011;59512;42.662;23.254;2024-01-11T10:21:06;61.20;;;37.63;;
71679;SDS011;59512;42.662;23.254;2024-01-11T10:23:35;65.15;;;38.40;;
71679;SDS011;59512;42.662;23.254;2024-01-11T10:26:01;68.63;;;40.57;;
71679;SDS011;59512;42.662;23.254;2024-01-11T10:28:27;75.57;;;43.58;;
71679;SDS011;59512;42.662;23.254;2024-01-11T10:30:53;99.47;;;58.13;;
71679;SDS011;59512;42.662;23.254;2024-01-11T10:33:19;73.20;;;43.05;;
71679;SDS011;59512;42.662;23.254;2024-01-11T10:35:46;73.82;;;43.28;;
71679;SDS011;59512;42.662;23.254;2024-01-11T10:38:14;68.70;;;42.10;;
71679;SDS011;59512;42.662;23.254;2024-01-11T10:40:40;62.38;;;41.42;;
71679;SDS011;59512;42.662;23.254;2024-01-11T10:43:06;86.93;;;60.25;;
71679;SDS011;59512;42.662;23.254;2024-01-11T10:45:35;67.63;;;41.17;;
71679;SDS011;59512;42.662;23.254;2024-01-11T10:48:05;62.37;;;39.50;;
71679;SDS011;59512;42.662;23.254;2024-01-11T10:50:35;63.92;;;41.22;;
71679;SDS011;59512;42.662;23.254;2024-01-11T10:55:45;56.33;;;35.75;;
71679;SDS011;59512;42.662;23.254;2024-01-11T10:58:11;56.17;;;35.90;;
71679;SDS011;59512;42.662;23.254;2024-01-11T11:00:37;55.10;;;34.23;;
71679;SDS011;59512;42.662;23.254;2024-01-11T11:03:03;59.47;;;35.15;;
71679;SDS011;59512;42.662;23.254;2024-01-11T11:05:31;68.63;;;38.92;;
71679;SDS011;59512;42.662;23.254;2024-01-11T11:08:00;57.07;;;34.53;;
71679;SDS011;59512;42.662;23.254;2024-01-11T11:10:27;53.08;;;30.13;;
71679;SDS011;59512;42.662;23.254;2024-01-11T11:12:54;53.65;;;31.40;;
71679;SDS011;59512;42.662;23.254;2024-01-11T11:15:24;49.50;;;31.27;;
71679;SDS011;59512;42.662;23.254;2024-01-11T11:17:52;55.22;;;32.70;;
71679;SDS011;59512;42.662;23.254;2024-01-11T11:20:18;58.17;;;35.37;;
71679;SDS011;59512;42.662;23.254;2024-01-11T11:22:48;51.55;;;31.08;;
71679;SDS011;59512;42.662;23.254;2024-01-11T11:25:29;45.50;;;26.80;;
71679;SDS011;59512;42.662;23.254;2024-01-11T11:27:55;48.78;;;27.98;;
71679;SDS011;59512;42.662;23.254;2024-01-11T11:30:20;45.73;;;27.07;;
71679;SDS011;59512;42.662;23.254;2024-01-11T11:32:46;49.63;;;26.20;;
71679;SDS011;59512;42.662;23.254;2024-01-11T11:35:11;50.37;;;27.93;;
71679;SDS011;59512;42.662;23.254;2024-01-11T11:37:37;46.85;;;26.42;;
71679;SDS011;59512;42.662;23.254;2024-01-11T11:40:03;40.67;;;24.35;;
71679;SDS011;59512;42.662;23.254;2024-01-11T11:42:39;41.60;;;24.10;;
71679;SDS011;59512;42.662;23.254;2024-01-11T11:45:05;46.70;;;27.83;;
71679;SDS011;59512;42.662;23.254;2024-01-11T11:47:33;43.85;;;26.88;;
71679;SDS011;59512;42.662;23.254;2024-01-11T11:52:41;39.05;;;23.20;;
71679;SDS011;59512;42.662;23.254;2024-01-11T11:55:08;37.90;;;20.03;;
71679;SDS011;59512;42.662;23.254;2024-01-11T11:57:34;31.55;;;18.52;;
71679;SDS011;59512;42.662;23.254;2024-01-11T12:00:00;32.78;;;19.30;;
71679;SDS011;59512;42.662;23.254;2024-01-11T12:02:32;34.10;;;19.38;;
71679;SDS011;59512;42.662;23.254;2024-01-11T12:04:57;32.60;;;19.23;;
71679;SDS011;59512;42.662;23.254;2024-01-11T12:07:23;23.38;;;14.02;;
71679;SDS011;59512;42.662;23.254;2024-01-11T12:09:50;25.60;;;14.90;;
71679;SDS011;59512;42.662;23.254;2024-01-11T12:12:16;25.75;;;14.90;;
71679;SDS011;59512;42.662;23.254;2024-01-11T12:14:43;24.30;;;14.95;;
71679;SDS011;59512;42.662;23.254;2024-01-11T12:17:08;29.60;;;16.57;;
71679;SDS011;59512;42.662;23.254;2024-01-11T12:19:34;23.73;;;13.73;;
71679;SDS011;59512;42.662;23.254;2024-01-11T12:21:59;24.67;;;14.47;;
71679;SDS011;59512;42.662;23.254;2024-01-11T12:24:25;19.07;;;12.40;;
71679;SDS011;59512;42.662;23.254;2024-01-11T12:26:51;18.85;;;11.75;;
71679;SDS011;59512;42.662;23.254;2024-01-11T12:29:18;22.48;;;12.38;;
71679;SDS011;59512;42.662;23.254;2024-01-11T12:31:44;13.63;;;7.75;;
71679;SDS011;59512;42.662;23.254;2024-01-11T12:34:13;9.30;;;4.97;;
71679;SDS011;59512;42.662;23.254;2024-01-11T12:36:39;11.48;;;5.88;;
71679;SDS011;59512;42.662;23.254;2024-01-11T12:39:04;10.93;;;5.77;;
71679;SDS011;59512;42.662;23.254;2024-01-11T12:41:31;9.88;;;5.25;;
71679;SDS011;59512;42.662;23.254;2024-01-11T12:43:57;11.30;;;5.20;;
71679;SDS011;59512;42.662;23.254;2024-01-11T12:46:23;9.95;;;5.30;;
71679;SDS011;59512;42.662;23.254;2024-01-11T12:48:48;9.47;;;5.10;;
71679;SDS011;59512;42.662;23.254;2024-01-11T12:51:16;9.65;;;5.40;;
71679;SDS011;59512;42.662;23.254;2024-01-11T12:53:44;11.63;;;5.67;;
71679;SDS011;59512;42.662;23.254;2024-01-11T12:56:10;14.00;;;6.88;;
71679;SDS011;59512;42.662;23.254;2024-01-11T12:58:36;10.35;;;4.95;;
71679;SDS011;59512;42.662;23.254;2024-01-11T13:01:03;9.82;;;5.07;;
71679;SDS011;59512;42.662;23.254;2024-01-11T13:03:29;8.93;;;5.00;;
71679;SDS011;59512;42.662;23.254;2024-01-11T13:05:56;11.10;;;5.03;;
71679;SDS011;59512;42.662;23.254;2024-01-11T13:08:21;12.05;;;5.70;;
71679;SDS011;59512;42.662;23.254;2024-01-11T13:10:47;14.87;;;6.50;;
71679;SDS011;59512;42.662;23.254;2024-01-11T13:13:12;11.63;;;6.07;;
71679;SDS011;59512;42.662;23.254;2024-01-11T13:15:39;12.68;;;6.05;;
71679;SDS011;59512;42.662;23.254;2024-01-11T13:18:04;14.47;;;7.43;;
71679;SDS011;59512;42.662;23.254;2024-01-11T13:20:30;12.18;;;6.40;;
71679;SDS011;59512;42.662;23.254;2024-01-11T13:23:17;11.87;;;6.53;;
71679;SDS011;59512;42.662;23.254;2024-01-11T13:25:47;13.73;;;6.72;;
71679;SDS011;59512;42.662;23.254;2024-01-11T13:28:14;10.80;;;5.55;;
71679;SDS011;59512;42.662;23.254;2024-01-11T13:30:40;12.33;;;6.10;;
71679;SDS011;59512;42.662;23.254;2024-01-11T13:33:07;11.32;;;6.25;;
71679;SDS011;59512;42.662;23.254;2024-01-11T13:35:34;11.60;;;5.70;;
71679;SDS011;59512;42.662;23.254;2024-01-11T13:38:00;11.10;;;5.30;;
71679;SDS011;59512;42.662;23.254;2024-01-11T13:40:25;10.53;;;5.67;;
71679;SDS011;59512;42.662;23.254;2024-01-11T13:42:53;13.20;;;6.20;;
71679;SDS011;59512;42.662;23.254;2024-01-11T13:45:20;9.70;;;5.18;;
71679;SDS011;59512;42.662;23.254;2024-01-11T13:47:45;9.37;;;5.00;;
71679;SDS011;59512;42.662;23.254;2024-01-11T13:50:11;9.57;;;4.70;;
71679;SDS011;59512;42.662;23.254;2024-01-11T13:52:37;8.82;;;4.75;;
71679;SDS011;59512;42.662;23.254;2024-01-11T13:55:03;11.10;;;5.37;;
71679;SDS011;59512;42.662;23.254;2024-01-11T13:57:28;9.70;;;4.80;;
71679;SDS011;59512;42.662;23.254;2024-01-11T13:59:54;9.13;;;4.57;;
71679;SDS011;59512;42.662;23.254;2024-01-11T14:02:19;10.33;;;5.30;;
71679;SDS011;59512;42.662;23.254;2024-01-11T14:04:45;10.57;;;5.38;;
71679;SDS011;59512;42.662;23.254;2024-01-11T14:07:10;8.80;;;4.53;;
71679;SDS011;59512;42.662;23.254;2024-01-11T14:09:38;8.75;;;4.47;;
71679;SDS011;59512;42.662;23.254;2024-01-11T14:12:03;9.97;;;5.20;;